KA4UR UKKK-UKKK
Flight info
| Callsign | KA4UR |
|---|---|
| Flight time | 1h 8m |
| Altitude | 6000 |
| Route | 5024N03035E 5028N03033E 5029N03032E 5033N03032E 5036N03034E 5038N03032E 5046N03028E 5053N03026E 5057N03026E 5105N03024E 5113N03023E 5116N03013E 5123N03006E 5124N03003E 5118N03004E 505619N0295350E 503260N0301324E |
| Aircraft | PA24/L-V/N |
Departure
| Time | 2026-04-26 19:07 |
|---|---|
| Airport | Ihor Sikorsky Kyiv International Airport (Zhuliany) (UKKK) |
Arrival
| Time | 2026-04-26 20:15 |
|---|---|
| Airport | Ihor Sikorsky Kyiv International Airport (Zhuliany) (UKKK) |
| Time | Latitude | Longitude | Altitude | Speed | Heading |
|---|---|---|---|---|---|
| 2026-04-26 18:47 | 50.40835 | 30.43982 | 569 ft | 0 kts | 295° |
| 2026-04-26 18:52 | 50.40829 | 30.43965 | 569 ft | 9 kts | 199° |
| 2026-04-26 18:53 | 50.40723 | 30.43959 | 569 ft | 28 kts | 204° |
| 2026-04-26 18:53 | 50.40536 | 30.43818 | 568 ft | 25 kts | 206° |
| 2026-04-26 18:53 | 50.40412 | 30.43733 | 570 ft | 11 kts | 238° |
| 2026-04-26 18:53 | 50.40352 | 30.43633 | 569 ft | 13 kts | 191° |
| 2026-04-26 18:54 | 50.40247 | 30.43576 | 565 ft | 19 kts | 211° |
| 2026-04-26 18:54 | 50.40204 | 30.43545 | 564 ft | 1 kts | 204° |
| 2026-04-26 18:54 | 50.40201 | 30.43544 | 564 ft | 0 kts | 205° |
| 2026-04-26 18:55 | 50.40198 | 30.43541 | 564 ft | 0 kts | 204° |
| 2026-04-26 18:56 | 50.40192 | 30.43542 | 564 ft | 1 kts | 143° |
| 2026-04-26 18:56 | 50.40206 | 30.43562 | 569 ft | 10 kts | 7° |
| 2026-04-26 18:57 | 50.40325 | 30.43624 | 566 ft | 24 kts | 25° |
| 2026-04-26 18:57 | 50.40433 | 30.43741 | 570 ft | 32 kts | 37° |
| 2026-04-26 18:57 | 50.40735 | 30.43961 | 569 ft | 37 kts | 22° |
| 2026-04-26 18:57 | 50.40938 | 30.44091 | 571 ft | 27 kts | 25° |
| 2026-04-26 18:58 | 50.41010 | 30.44330 | 573 ft | 33 kts | 90° |
| 2026-04-26 18:58 | 50.40970 | 30.44745 | 577 ft | 43 kts | 128° |
| 2026-04-26 18:58 | 50.40739 | 30.45133 | 580 ft | 53 kts | 132° |
| 2026-04-26 18:58 | 50.40524 | 30.45533 | 584 ft | 34 kts | 130° |
| 2026-04-26 18:59 | 50.40470 | 30.45886 | 587 ft | 37 kts | 93° |
| 2026-04-26 18:59 | 50.40413 | 30.46193 | 589 ft | 24 kts | 160° |
| 2026-04-26 18:59 | 50.40298 | 30.46197 | 590 ft | 0 kts | 175° |
| 2026-04-26 19:03 | 50.40261 | 30.46195 | 590 ft | 9 kts | 197° |
| 2026-04-26 19:03 | 50.40221 | 30.46118 | 590 ft | 11 kts | 254° |
| 2026-04-26 19:03 | 50.40218 | 30.46093 | 590 ft | 0 kts | 262° |
| 2026-04-26 19:06 | 50.40214 | 30.46044 | 589 ft | 23 kts | 264° |
| 2026-04-26 19:07 | 50.40182 | 30.45511 | 637 ft | 61 kts | 271° |
| 2026-04-26 19:07 | 50.40103 | 30.44776 | 847 ft | 77 kts | 274° |
| 2026-04-26 19:07 | 50.39888 | 30.43996 | 1168 ft | 88 kts | 226° |
| 2026-04-26 19:07 | 50.39212 | 30.44116 | 1290 ft | 120 kts | 141° |
| 2026-04-26 19:08 | 50.39077 | 30.45477 | 1446 ft | 132 kts | 77° |
| 2026-04-26 19:08 | 50.39086 | 30.46491 | 1600 ft | 144 kts | 79° |
| 2026-04-26 19:08 | 50.39066 | 30.48126 | 1678 ft | 158 kts | 81° |
| 2026-04-26 19:08 | 50.39030 | 30.49802 | 1976 ft | 151 kts | 83° |
| 2026-04-26 19:09 | 50.38983 | 30.51473 | 2197 ft | 156 kts | 81° |
| 2026-04-26 19:09 | 50.38935 | 30.53202 | 2359 ft | 159 kts | 83° |
| 2026-04-26 19:09 | 50.38857 | 30.54964 | 2369 ft | 171 kts | 84° |
| 2026-04-26 19:09 | 50.38817 | 30.56846 | 2395 ft | 173 kts | 84° |
| 2026-04-26 19:10 | 50.38741 | 30.58732 | 2382 ft | 171 kts | 83° |
| 2026-04-26 19:10 | 50.38870 | 30.60540 | 2373 ft | 163 kts | 55° |
| 2026-04-26 19:10 | 50.39584 | 30.61735 | 2376 ft | 142 kts | 16° |
| 2026-04-26 19:10 | 50.40476 | 30.61916 | 2332 ft | 125 kts | 335° |
| 2026-04-26 19:11 | 50.41185 | 30.61334 | 2347 ft | 109 kts | 320° |
| 2026-04-26 19:11 | 50.41663 | 30.60468 | 2358 ft | 103 kts | 303° |
| 2026-04-26 19:11 | 50.41965 | 30.59444 | 2363 ft | 103 kts | 303° |
| 2026-04-26 19:11 | 50.42315 | 30.58483 | 2373 ft | 100 kts | 311° |
| 2026-04-26 19:12 | 50.42807 | 30.57737 | 2372 ft | 98 kts | 325° |
| 2026-04-26 19:12 | 50.43402 | 30.57241 | 2368 ft | 98 kts | 330° |
| 2026-04-26 19:12 | 50.44024 | 30.56789 | 2373 ft | 96 kts | 330° |
| 2026-04-26 19:12 | 50.44631 | 30.56349 | 2359 ft | 97 kts | 330° |
| 2026-04-26 19:13 | 50.45225 | 30.55897 | 2367 ft | 96 kts | 327° |
| 2026-04-26 19:13 | 50.45808 | 30.55384 | 2367 ft | 96 kts | 327° |
| 2026-04-26 19:13 | 50.46388 | 30.54862 | 2370 ft | 96 kts | 326° |
| 2026-04-26 19:13 | 50.46968 | 30.54345 | 2371 ft | 95 kts | 327° |
| 2026-04-26 19:14 | 50.47548 | 30.53823 | 2369 ft | 96 kts | 326° |
| 2026-04-26 19:14 | 50.48124 | 30.53298 | 2370 ft | 96 kts | 326° |
| 2026-04-26 19:14 | 50.48701 | 30.52766 | 2371 ft | 96 kts | 326° |
| 2026-04-26 19:14 | 50.49101 | 30.52435 | 2373 ft | 97 kts | 333° |
| 2026-04-26 19:15 | 50.49981 | 30.52130 | 2376 ft | 100 kts | 348° |
| 2026-04-26 19:15 | 50.50694 | 30.52178 | 2373 ft | 104 kts | 353° |
| 2026-04-26 19:15 | 50.51414 | 30.52277 | 2371 ft | 104 kts | 353° |
| 2026-04-26 19:15 | 50.52140 | 30.52367 | 2374 ft | 105 kts | 353° |
| 2026-04-26 19:16 | 50.52876 | 30.52459 | 2376 ft | 107 kts | 353° |
| 2026-04-26 19:16 | 50.53623 | 30.52541 | 2371 ft | 108 kts | 353° |
| 2026-04-26 19:16 | 50.54381 | 30.52588 | 2370 ft | 109 kts | 350° |
| 2026-04-26 19:16 | 50.55141 | 30.52587 | 2370 ft | 109 kts | 350° |
| 2026-04-26 19:17 | 50.55910 | 30.52583 | 2371 ft | 111 kts | 350° |
| 2026-04-26 19:17 | 50.56690 | 30.52578 | 2371 ft | 112 kts | 349° |
| 2026-04-26 19:17 | 50.57469 | 30.52557 | 2423 ft | 108 kts | 349° |
| 2026-04-26 19:17 | 50.58144 | 30.52423 | 2636 ft | 95 kts | 339° |
| 2026-04-26 19:18 | 50.58808 | 30.52155 | 2599 ft | 102 kts | 335° |
| 2026-04-26 19:18 | 50.59399 | 30.51786 | 2874 ft | 81 kts | 330° |
| 2026-04-26 19:18 | 50.59917 | 30.51350 | 2973 ft | 82 kts | 324° |
| 2026-04-26 19:18 | 50.60361 | 30.50926 | 3283 ft | 70 kts | 324° |
| 2026-04-26 19:19 | 50.60736 | 30.50569 | 3562 ft | 62 kts | 323° |
| 2026-04-26 19:19 | 50.61105 | 30.50220 | 3776 ft | 62 kts | 324° |
| 2026-04-26 19:19 | 50.61490 | 30.49860 | 3969 ft | 63 kts | 324° |
| 2026-04-26 19:19 | 50.61867 | 30.49509 | 4173 ft | 63 kts | 324° |
| 2026-04-26 19:20 | 50.62240 | 30.49162 | 4395 ft | 61 kts | 324° |
| 2026-04-26 19:20 | 50.62483 | 30.48935 | 4527 ft | 59 kts | 324° |
| 2026-04-26 19:20 | 50.62944 | 30.48498 | 4747 ft | 59 kts | 324° |
| 2026-04-26 19:20 | 50.63293 | 30.48172 | 4921 ft | 60 kts | 324° |
| 2026-04-26 19:21 | 50.63656 | 30.47835 | 5102 ft | 59 kts | 324° |
| 2026-04-26 19:21 | 50.64019 | 30.47497 | 5315 ft | 51 kts | 324° |
| 2026-04-26 19:21 | 50.64357 | 30.47179 | 5413 ft | 61 kts | 323° |
| 2026-04-26 19:21 | 50.64706 | 30.46852 | 5624 ft | 55 kts | 323° |
| 2026-04-26 19:22 | 50.65034 | 30.46546 | 5779 ft | 56 kts | 323° |
| 2026-04-26 19:22 | 50.65379 | 30.46224 | 5931 ft | 58 kts | 324° |
| 2026-04-26 19:22 | 50.65760 | 30.45858 | 5996 ft | 72 kts | 324° |
| 2026-04-26 19:22 | 50.66219 | 30.45406 | 6041 ft | 81 kts | 324° |
| 2026-04-26 19:23 | 50.66745 | 30.44871 | 5906 ft | 99 kts | 324° |
| 2026-04-26 19:23 | 50.67308 | 30.44298 | 6025 ft | 93 kts | 324° |
| 2026-04-26 19:23 | 50.67866 | 30.43699 | 5950 ft | 104 kts | 323° |
| 2026-04-26 19:23 | 50.68476 | 30.43019 | 5964 ft | 99 kts | 323° |
| 2026-04-26 19:24 | 50.69071 | 30.42374 | 5874 ft | 111 kts | 323° |
| 2026-04-26 19:24 | 50.69713 | 30.41670 | 5839 ft | 111 kts | 323° |
| 2026-04-26 19:24 | 50.71045 | 30.40759 | 5890 ft | 106 kts | 352° |
| 2026-04-26 19:25 | 50.71803 | 30.40955 | 5885 ft | 113 kts | 0° |
| 2026-04-26 19:25 | 50.72316 | 30.41138 | 5882 ft | 114 kts | 1° |
| 2026-04-26 19:25 | 50.73360 | 30.41441 | 5889 ft | 114 kts | 357° |
| 2026-04-26 19:25 | 50.74142 | 30.41629 | 5888 ft | 113 kts | 357° |
| 2026-04-26 19:26 | 50.74922 | 30.41815 | 5887 ft | 113 kts | 357° |
| 2026-04-26 19:26 | 50.75686 | 30.41995 | 5886 ft | 112 kts | 357° |
| 2026-04-26 19:26 | 50.76457 | 30.42177 | 5883 ft | 112 kts | 357° |
| 2026-04-26 19:26 | 50.77227 | 30.42360 | 5878 ft | 112 kts | 357° |
| 2026-04-26 19:27 | 50.77992 | 30.42539 | 5865 ft | 111 kts | 357° |
| 2026-04-26 19:27 | 50.78755 | 30.42741 | 5879 ft | 111 kts | 357° |
| 2026-04-26 19:27 | 50.79520 | 30.42949 | 5883 ft | 112 kts | 356° |
| 2026-04-26 19:27 | 50.80285 | 30.43161 | 5888 ft | 112 kts | 356° |
| 2026-04-26 19:28 | 50.81051 | 30.43373 | 5883 ft | 112 kts | 356° |
| 2026-04-26 19:28 | 50.81815 | 30.43584 | 5882 ft | 111 kts | 356° |
| 2026-04-26 19:28 | 50.82577 | 30.43798 | 5882 ft | 111 kts | 356° |
| 2026-04-26 19:28 | 50.83338 | 30.44017 | 5882 ft | 111 kts | 357° |
| 2026-04-26 19:29 | 50.84096 | 30.44223 | 5882 ft | 110 kts | 356° |
| 2026-04-26 19:29 | 50.84836 | 30.44421 | 5884 ft | 109 kts | 356° |
| 2026-04-26 19:29 | 50.85578 | 30.44620 | 5881 ft | 107 kts | 356° |
| 2026-04-26 19:29 | 50.86313 | 30.44820 | 5883 ft | 106 kts | 356° |
| 2026-04-26 19:30 | 50.87036 | 30.45021 | 5885 ft | 106 kts | 356° |
| 2026-04-26 19:30 | 50.87761 | 30.45223 | 5880 ft | 106 kts | 356° |
| 2026-04-26 19:30 | 50.88492 | 30.45426 | 5875 ft | 107 kts | 356° |
| 2026-04-26 19:30 | 50.88977 | 30.45561 | 5874 ft | 107 kts | 356° |
| 2026-04-26 19:31 | 50.89958 | 30.45832 | 5877 ft | 107 kts | 356° |
| 2026-04-26 19:31 | 50.90693 | 30.46033 | 5877 ft | 107 kts | 356° |
| 2026-04-26 19:31 | 50.91433 | 30.46189 | 5884 ft | 107 kts | 348° |
| 2026-04-26 19:31 | 50.92163 | 30.46143 | 5903 ft | 104 kts | 345° |
| 2026-04-26 19:32 | 50.92890 | 30.46058 | 5883 ft | 105 kts | 345° |
| 2026-04-26 19:32 | 50.93615 | 30.45964 | 5880 ft | 105 kts | 345° |
| 2026-04-26 19:32 | 50.94342 | 30.45868 | 5878 ft | 105 kts | 345° |
| 2026-04-26 19:32 | 50.95068 | 30.45772 | 5877 ft | 105 kts | 345° |
| 2026-04-26 19:33 | 50.95795 | 30.45675 | 5877 ft | 105 kts | 345° |
| 2026-04-26 19:33 | 50.96525 | 30.45576 | 5878 ft | 105 kts | 345° |
| 2026-04-26 19:33 | 50.97250 | 30.45478 | 5878 ft | 106 kts | 345° |
| 2026-04-26 19:33 | 50.97987 | 30.45377 | 5872 ft | 107 kts | 345° |
| 2026-04-26 19:34 | 50.98729 | 30.45269 | 5875 ft | 107 kts | 345° |
| 2026-04-26 19:34 | 50.99469 | 30.45155 | 5875 ft | 107 kts | 345° |
| 2026-04-26 19:34 | 51.00194 | 30.44904 | 5877 ft | 106 kts | 333° |
| 2026-04-26 19:34 | 51.00882 | 30.44501 | 5874 ft | 105 kts | 333° |
| 2026-04-26 19:35 | 51.01542 | 30.44016 | 5874 ft | 104 kts | 328° |
| 2026-04-26 19:35 | 51.02185 | 30.43482 | 5873 ft | 104 kts | 327° |
| 2026-04-26 19:35 | 51.02822 | 30.42946 | 5873 ft | 104 kts | 327° |
| 2026-04-26 19:35 | 51.03459 | 30.42407 | 5874 ft | 104 kts | 327° |
| 2026-04-26 19:36 | 51.04097 | 30.41865 | 5874 ft | 104 kts | 327° |
| 2026-04-26 19:36 | 51.04521 | 30.41504 | 5872 ft | 104 kts | 327° |
| 2026-04-26 19:36 | 51.05370 | 30.40778 | 5872 ft | 105 kts | 327° |
| 2026-04-26 19:36 | 51.06013 | 30.40226 | 5875 ft | 105 kts | 327° |
| 2026-04-26 19:37 | 51.06658 | 30.39671 | 5875 ft | 106 kts | 327° |
| 2026-04-26 19:37 | 51.07305 | 30.39111 | 5875 ft | 106 kts | 327° |
| 2026-04-26 19:37 | 51.07957 | 30.38548 | 5878 ft | 107 kts | 327° |
| 2026-04-26 19:37 | 51.08612 | 30.37981 | 5876 ft | 107 kts | 327° |
| 2026-04-26 19:38 | 51.09268 | 30.37410 | 5875 ft | 107 kts | 327° |
| 2026-04-26 19:38 | 51.09924 | 30.36838 | 5876 ft | 107 kts | 327° |
| 2026-04-26 19:38 | 51.10580 | 30.36264 | 5879 ft | 107 kts | 327° |
| 2026-04-26 19:38 | 51.11237 | 30.35688 | 5874 ft | 108 kts | 327° |
| 2026-04-26 19:39 | 51.11893 | 30.35113 | 5874 ft | 108 kts | 327° |
| 2026-04-26 19:39 | 51.12551 | 30.34531 | 5858 ft | 109 kts | 327° |
| 2026-04-26 19:39 | 51.13216 | 30.33940 | 5853 ft | 109 kts | 327° |
| 2026-04-26 19:39 | 51.13872 | 30.33360 | 5863 ft | 108 kts | 327° |
| 2026-04-26 19:40 | 51.14517 | 30.32787 | 5869 ft | 107 kts | 326° |
| 2026-04-26 19:40 | 51.15030 | 30.32332 | 5853 ft | 107 kts | 326° |
| 2026-04-26 19:40 | 51.15664 | 30.31769 | 5877 ft | 103 kts | 327° |
| 2026-04-26 19:40 | 51.16287 | 30.31211 | 5875 ft | 103 kts | 326° |
| 2026-04-26 19:41 | 51.16913 | 30.30649 | 5876 ft | 103 kts | 326° |
| 2026-04-26 19:41 | 51.17539 | 30.30085 | 5876 ft | 104 kts | 326° |
| 2026-04-26 19:41 | 51.18170 | 30.29515 | 5874 ft | 104 kts | 326° |
| 2026-04-26 19:41 | 51.18588 | 30.29137 | 5873 ft | 104 kts | 326° |
| 2026-04-26 19:42 | 51.19396 | 30.28406 | 5860 ft | 93 kts | 326° |
| 2026-04-26 19:42 | 51.19937 | 30.27926 | 5861 ft | 85 kts | 326° |
| 2026-04-26 19:42 | 51.20451 | 30.27470 | 5900 ft | 87 kts | 326° |
| 2026-04-26 19:42 | 51.21003 | 30.26977 | 5912 ft | 95 kts | 326° |
| 2026-04-26 19:43 | 51.21595 | 30.26440 | 5897 ft | 101 kts | 326° |
| 2026-04-26 19:43 | 51.22216 | 30.25871 | 5888 ft | 104 kts | 326° |
| 2026-04-26 19:43 | 51.22848 | 30.25287 | 5880 ft | 106 kts | 326° |
| 2026-04-26 19:43 | 51.23486 | 30.24695 | 5871 ft | 107 kts | 326° |
| 2026-04-26 19:44 | 51.24118 | 30.24104 | 5874 ft | 106 kts | 326° |
| 2026-04-26 19:44 | 51.24758 | 30.23506 | 5878 ft | 107 kts | 326° |
| 2026-04-26 19:44 | 51.25399 | 30.22903 | 5879 ft | 107 kts | 326° |
| 2026-04-26 19:44 | 51.26052 | 30.22283 | 5878 ft | 110 kts | 326° |
| 2026-04-26 19:45 | 51.26710 | 30.21653 | 5875 ft | 110 kts | 326° |
| 2026-04-26 19:45 | 51.27332 | 30.20940 | 5873 ft | 111 kts | 311° |
| 2026-04-26 19:45 | 51.27800 | 30.19967 | 5871 ft | 111 kts | 308° |
| 2026-04-26 19:45 | 51.28246 | 30.18967 | 5870 ft | 110 kts | 307° |
| 2026-04-26 19:46 | 51.28687 | 30.17967 | 5870 ft | 110 kts | 307° |
| 2026-04-26 19:46 | 51.29126 | 30.16974 | 5873 ft | 109 kts | 307° |
| 2026-04-26 19:46 | 51.29562 | 30.15983 | 5876 ft | 109 kts | 307° |
| 2026-04-26 19:46 | 51.30000 | 30.14990 | 5876 ft | 109 kts | 307° |
| 2026-04-26 19:47 | 51.30436 | 30.13997 | 5876 ft | 109 kts | 307° |
| 2026-04-26 19:47 | 51.30577 | 30.13675 | 5876 ft | 109 kts | 307° |
| 2026-04-26 19:47 | 51.31304 | 30.12012 | 5879 ft | 109 kts | 307° |
| 2026-04-26 19:47 | 51.31736 | 30.11017 | 5879 ft | 109 kts | 307° |
| 2026-04-26 19:48 | 51.32166 | 30.10018 | 5879 ft | 109 kts | 307° |
| 2026-04-26 19:48 | 51.32595 | 30.09018 | 5876 ft | 109 kts | 307° |
| 2026-04-26 19:48 | 51.33025 | 30.08012 | 5877 ft | 110 kts | 307° |
| 2026-04-26 19:48 | 51.33454 | 30.07005 | 5876 ft | 110 kts | 307° |
| 2026-04-26 19:49 | 51.33882 | 30.05997 | 5876 ft | 110 kts | 307° |
| 2026-04-26 19:49 | 51.34308 | 30.04988 | 5878 ft | 109 kts | 307° |
| 2026-04-26 19:49 | 51.34733 | 30.03982 | 5879 ft | 109 kts | 307° |
| 2026-04-26 19:49 | 51.35154 | 30.02993 | 5879 ft | 109 kts | 307° |
| 2026-04-26 19:50 | 51.35578 | 30.01981 | 5878 ft | 109 kts | 303° |
| 2026-04-26 19:50 | 51.35656 | 30.00774 | 5861 ft | 118 kts | 261° |
| 2026-04-26 19:50 | 51.35069 | 29.99779 | 5865 ft | 135 kts | 220° |
| 2026-04-26 19:50 | 51.34086 | 29.99592 | 5880 ft | 153 kts | 184° |
| 2026-04-26 19:51 | 51.32986 | 29.99811 | 5875 ft | 163 kts | 182° |
| 2026-04-26 19:51 | 51.31850 | 30.00059 | 5867 ft | 166 kts | 181° |
| 2026-04-26 19:51 | 51.30697 | 30.00328 | 5888 ft | 168 kts | 181° |
| 2026-04-26 19:51 | 51.29527 | 30.00607 | 5886 ft | 170 kts | 181° |
| 2026-04-26 19:52 | 51.28353 | 30.00893 | 5884 ft | 171 kts | 181° |
| 2026-04-26 19:52 | 51.27172 | 30.01182 | 5888 ft | 172 kts | 181° |
| 2026-04-26 19:52 | 51.26004 | 30.01473 | 5884 ft | 172 kts | 181° |
| 2026-04-26 19:52 | 51.24821 | 30.01770 | 5885 ft | 172 kts | 181° |
| 2026-04-26 19:53 | 51.23632 | 30.02069 | 5886 ft | 173 kts | 180° |
| 2026-04-26 19:53 | 51.22443 | 30.02368 | 5894 ft | 173 kts | 181° |
| 2026-04-26 19:53 | 51.21250 | 30.02668 | 5884 ft | 174 kts | 180° |
| 2026-04-26 19:53 | 51.20057 | 30.02966 | 5888 ft | 174 kts | 180° |
| 2026-04-26 19:54 | 51.18860 | 30.03261 | 5888 ft | 174 kts | 180° |
| 2026-04-26 19:54 | 51.17668 | 30.03557 | 5891 ft | 174 kts | 180° |
| 2026-04-26 19:54 | 51.16878 | 30.03757 | 5885 ft | 174 kts | 180° |
| 2026-04-26 19:54 | 51.15685 | 30.04058 | 5885 ft | 174 kts | 180° |
| 2026-04-26 19:55 | 51.14491 | 30.04364 | 5889 ft | 174 kts | 180° |
| 2026-04-26 19:55 | 51.13127 | 30.04713 | 5890 ft | 174 kts | 180° |
| 2026-04-26 19:55 | 51.11933 | 30.05017 | 5886 ft | 173 kts | 180° |
| 2026-04-26 19:55 | 51.10354 | 30.05418 | 5885 ft | 173 kts | 180° |
| 2026-04-26 19:56 | 51.09549 | 30.05622 | 5887 ft | 173 kts | 180° |
| 2026-04-26 19:56 | 51.08360 | 30.05926 | 5893 ft | 173 kts | 180° |
| 2026-04-26 19:56 | 51.07173 | 30.06228 | 5898 ft | 173 kts | 180° |
| 2026-04-26 19:56 | 51.06002 | 30.06528 | 5896 ft | 173 kts | 180° |
| 2026-04-26 19:57 | 51.04817 | 30.06836 | 5900 ft | 173 kts | 180° |
| 2026-04-26 19:57 | 51.03632 | 30.07139 | 5896 ft | 173 kts | 180° |
| 2026-04-26 19:57 | 51.02447 | 30.07442 | 5882 ft | 171 kts | 180° |
| 2026-04-26 19:57 | 51.01273 | 30.07744 | 5891 ft | 171 kts | 180° |
| 2026-04-26 19:58 | 51.00096 | 30.08047 | 5893 ft | 172 kts | 180° |
| 2026-04-26 19:58 | 50.98915 | 30.08352 | 5893 ft | 172 kts | 179° |
| 2026-04-26 19:58 | 50.97842 | 30.08655 | 5832 ft | 139 kts | 179° |
| 2026-04-26 19:58 | 50.96974 | 30.08960 | 5607 ft | 126 kts | 179° |
| 2026-04-26 19:59 | 50.96141 | 30.09267 | 5346 ft | 119 kts | 179° |
| 2026-04-26 19:59 | 50.95378 | 30.09607 | 5141 ft | 113 kts | 176° |
| 2026-04-26 19:59 | 50.94649 | 30.09915 | 5025 ft | 102 kts | 178° |
| 2026-04-26 19:59 | 50.94001 | 30.10278 | 4849 ft | 99 kts | 175° |
| 2026-04-26 20:00 | 50.93380 | 30.10650 | 4675 ft | 99 kts | 176° |
| 2026-04-26 20:00 | 50.92733 | 30.10971 | 4485 ft | 96 kts | 180° |
| 2026-04-26 20:00 | 50.92081 | 30.11237 | 4287 ft | 94 kts | 180° |
| 2026-04-26 20:00 | 50.91516 | 30.11728 | 4006 ft | 98 kts | 134° |
| 2026-04-26 20:01 | 50.91002 | 30.12490 | 3754 ft | 106 kts | 146° |
| 2026-04-26 20:01 | 50.90429 | 30.13187 | 3587 ft | 101 kts | 148° |
| 2026-04-26 20:01 | 50.89831 | 30.13816 | 3339 ft | 104 kts | 153° |
| 2026-04-26 20:01 | 50.89162 | 30.14564 | 3573 ft | 123 kts | 152° |
| 2026-04-26 20:02 | 50.88515 | 30.15208 | 4152 ft | 107 kts | 150° |
| 2026-04-26 20:02 | 50.87803 | 30.15844 | 4445 ft | 122 kts | 157° |
| 2026-04-26 20:02 | 50.86981 | 30.16344 | 4688 ft | 137 kts | 175° |
| 2026-04-26 20:02 | 50.86357 | 30.16548 | 4886 ft | 137 kts | 179° |
| 2026-04-26 20:03 | 50.85000 | 30.16920 | 4969 ft | 161 kts | 180° |
| 2026-04-26 20:03 | 50.83846 | 30.17197 | 4989 ft | 172 kts | 180° |
| 2026-04-26 20:03 | 50.82643 | 30.17489 | 5015 ft | 177 kts | 179° |
| 2026-04-26 20:03 | 50.81417 | 30.17796 | 5047 ft | 179 kts | 179° |
| 2026-04-26 20:04 | 50.80196 | 30.18102 | 5081 ft | 180 kts | 180° |
| 2026-04-26 20:04 | 50.78958 | 30.18414 | 5117 ft | 180 kts | 179° |
| 2026-04-26 20:04 | 50.77720 | 30.18741 | 5152 ft | 181 kts | 179° |
| 2026-04-26 20:04 | 50.76481 | 30.19063 | 5187 ft | 181 kts | 179° |
| 2026-04-26 20:05 | 50.75236 | 30.19390 | 5214 ft | 182 kts | 179° |
| 2026-04-26 20:05 | 50.73975 | 30.19708 | 5137 ft | 187 kts | 179° |
| 2026-04-26 20:05 | 50.71964 | 30.20230 | 5001 ft | 189 kts | 179° |
| 2026-04-26 20:05 | 50.68842 | 30.21000 | 4913 ft | 187 kts | 180° |
| 2026-04-26 20:06 | 50.65426 | 30.21697 | 4905 ft | 183 kts | 179° |
| 2026-04-26 20:06 | 50.62910 | 30.22450 | 4905 ft | 184 kts | 180° |
| 2026-04-26 20:06 | 50.60400 | 30.23119 | 4911 ft | 184 kts | 178° |
| 2026-04-26 20:06 | 50.57864 | 30.23795 | 4912 ft | 185 kts | 179° |
| 2026-04-26 20:07 | 50.55324 | 30.24455 | 4912 ft | 185 kts | 179° |
| 2026-04-26 20:07 | 50.52795 | 30.25125 | 4913 ft | 184 kts | 179° |
| 2026-04-26 20:07 | 50.51307 | 30.25513 | 4911 ft | 184 kts | 178° |
| 2026-04-26 20:07 | 50.50044 | 30.25847 | 4915 ft | 184 kts | 178° |
| 2026-04-26 20:08 | 50.48780 | 30.26176 | 4915 ft | 184 kts | 178° |
| 2026-04-26 20:08 | 50.47516 | 30.26506 | 4915 ft | 184 kts | 179° |
| 2026-04-26 20:08 | 50.46251 | 30.26854 | 4911 ft | 184 kts | 176° |
| 2026-04-26 20:08 | 50.45030 | 30.27466 | 4913 ft | 186 kts | 165° |
| 2026-04-26 20:09 | 50.43824 | 30.28228 | 4894 ft | 187 kts | 163° |
| 2026-04-26 20:09 | 50.42653 | 30.29124 | 4910 ft | 188 kts | 156° |
| 2026-04-26 20:09 | 50.41490 | 30.30097 | 4740 ft | 195 kts | 156° |
| 2026-04-26 20:09 | 50.40269 | 30.31119 | 4453 ft | 202 kts | 156° |
| 2026-04-26 20:10 | 50.39162 | 30.32415 | 4189 ft | 200 kts | 130° |
| 2026-04-26 20:10 | 50.38728 | 30.34437 | 3542 ft | 199 kts | 80° |
| 2026-04-26 20:10 | 50.39324 | 30.36178 | 3301 ft | 160 kts | 21° |
| 2026-04-26 20:10 | 50.40162 | 30.35894 | 2986 ft | 134 kts | 297° |
| 2026-04-26 20:11 | 50.39956 | 30.34523 | 2601 ft | 140 kts | 223° |
| 2026-04-26 20:11 | 50.39046 | 30.34642 | 2513 ft | 146 kts | 152° |
| 2026-04-26 20:11 | 50.38570 | 30.36265 | 1624 ft | 185 kts | 85° |
| 2026-04-26 20:12 | 50.38921 | 30.39727 | 1552 ft | 142 kts | 79° |
| 2026-04-26 20:12 | 50.38889 | 30.41248 | 1748 ft | 138 kts | 84° |
| 2026-04-26 20:12 | 50.38769 | 30.42770 | 1774 ft | 145 kts | 86° |
| 2026-04-26 20:12 | 50.38684 | 30.44292 | 2022 ft | 137 kts | 84° |
| 2026-04-26 20:13 | 50.38614 | 30.45765 | 2156 ft | 138 kts | 84° |
| 2026-04-26 20:13 | 50.38558 | 30.47263 | 2269 ft | 138 kts | 85° |
| 2026-04-26 20:13 | 50.38503 | 30.48763 | 2468 ft | 131 kts | 78° |
| 2026-04-26 20:13 | 50.38802 | 30.49988 | 2481 ft | 119 kts | 28° |
| 2026-04-26 20:14 | 50.39479 | 30.50406 | 2452 ft | 88 kts | 342° |
| 2026-04-26 20:14 | 50.39910 | 30.49841 | 2207 ft | 93 kts | 300° |
| 2026-04-26 20:14 | 50.40156 | 30.48850 | 1856 ft | 97 kts | 291° |
| 2026-04-26 20:14 | 50.40278 | 30.47791 | 1318 ft | 105 kts | 279° |
| 2026-04-26 20:15 | 50.40227 | 30.46676 | 932 ft | 94 kts | 280° |
| 2026-04-26 20:15 | 50.40191 | 30.45695 | 637 ft | 85 kts | 274° |
| 2026-04-26 20:15 | 50.40157 | 30.44940 | 577 ft | 53 kts | 278° |
| 2026-04-26 20:15 | 50.40157 | 30.44539 | 575 ft | 26 kts | 259° |
| 2026-04-26 20:16 | 50.40153 | 30.44176 | 573 ft | 41 kts | 260° |
| 2026-04-26 20:16 | 50.40157 | 30.43739 | 566 ft | 33 kts | 297° |
| 2026-04-26 20:16 | 50.40301 | 30.43620 | 566 ft | 26 kts | 28° |
| 2026-04-26 20:16 | 50.40415 | 30.43732 | 571 ft | 18 kts | 38° |
| 2026-04-26 20:17 | 50.40535 | 30.43823 | 568 ft | 21 kts | 26° |
| 2026-04-26 20:17 | 50.40689 | 30.43930 | 569 ft | 27 kts | 26° |
| 2026-04-26 20:17 | 50.40862 | 30.44058 | 570 ft | 23 kts | 27° |
| 2026-04-26 20:17 | 50.40943 | 30.44083 | 573 ft | 14 kts | 325° |
| 2026-04-26 20:18 | 50.40972 | 30.44029 | 570 ft | 0 kts | 293° |